createdAt,value
2018-02-10T00:00:00.079Z,0.00
2018-02-10T00:01:00.064Z,0.00
2018-02-10T00:02:00.055Z,0.00
2018-02-10T00:03:00.067Z,0.00
2018-02-10T00:04:00.069Z,0.00
2018-02-10T00:05:00.081Z,0.00
2018-02-10T00:06:00.089Z,0.00
2018-02-10T00:07:00.100Z,0.00
2018-02-10T00:08:00.108Z,0.00
2018-02-10T00:09:00.125Z,0.00
2018-02-10T00:10:00.128Z,0.00
2018-02-10T00:11:00.134Z,0.00
2018-02-10T00:12:00.143Z,0.00
2018-02-10T00:13:00.160Z,0.00
2018-02-10T00:14:00.165Z,0.00
2018-02-10T00:15:00.170Z,0.00
2018-02-10T00:16:00.180Z,0.00
2018-02-10T00:17:00.193Z,0.00
2018-02-10T00:18:00.199Z,0.00
2018-02-10T00:19:00.205Z,0.00
2018-02-10T00:20:00.220Z,0.00
2018-02-10T00:21:00.224Z,0.00
2018-02-10T00:22:00.234Z,0.00
2018-02-10T00:23:00.244Z,0.00
2018-02-10T00:24:00.262Z,0.00
2018-02-10T00:25:00.307Z,0.00
2018-02-10T00:26:00.269Z,0.00
2018-02-10T00:27:00.282Z,0.00
2018-02-10T00:28:00.291Z,0.00
2018-02-10T00:29:00.299Z,0.00
2018-02-10T00:30:00.305Z,0.00
2018-02-10T00:31:00.323Z,0.00
2018-02-10T00:32:00.323Z,0.00
2018-02-10T00:33:00.335Z,0.00
2018-02-10T00:34:00.345Z,0.00
2018-02-10T00:35:00.352Z,0.00
2018-02-10T00:36:00.361Z,0.00
2018-02-10T00:37:00.373Z,0.00
2018-02-10T00:38:00.379Z,0.00
2018-02-10T00:39:00.386Z,0.00
2018-02-10T00:40:00.406Z,0.00
2018-02-10T00:41:00.406Z,0.00
2018-02-10T00:42:00.419Z,0.00
2018-02-10T00:43:00.438Z,0.00
2018-02-10T00:44:00.435Z,0.00
2018-02-10T00:45:00.441Z,0.00
2018-02-10T00:46:00.456Z,0.00
2018-02-10T00:47:00.461Z,0.00
2018-02-10T00:48:00.470Z,0.00
2018-02-10T00:49:00.490Z,0.00
2018-02-10T00:50:00.488Z,0.00
2018-02-10T00:51:00.494Z,0.00
2018-02-10T00:52:00.508Z,0.00
2018-02-10T00:53:00.522Z,0.00
2018-02-10T00:54:00.522Z,0.00
2018-02-10T00:55:00.532Z,0.00
2018-02-10T00:56:00.543Z,0.00
2018-02-10T00:57:00.549Z,0.00
2018-02-10T00:58:00.562Z,0.00
2018-02-10T00:59:00.567Z,0.00
2018-02-10T01:00:00.577Z,0.00
2018-02-10T01:01:00.584Z,0.00
2018-02-10T01:02:00.593Z,0.00
2018-02-10T01:03:00.600Z,0.00
2018-02-10T01:04:00.612Z,0.00
2018-02-10T01:05:00.624Z,0.00
2018-02-10T01:06:00.631Z,0.00
2018-02-10T01:07:00.642Z,0.00
2018-02-10T01:08:00.647Z,0.00
2018-02-10T01:09:00.658Z,0.00
2018-02-10T01:10:00.666Z,0.00
2018-02-10T01:11:00.677Z,0.00
2018-02-10T01:12:00.682Z,0.00
2018-02-10T01:13:00.695Z,0.00
2018-02-10T01:14:00.699Z,0.00
2018-02-10T01:15:00.709Z,0.00
2018-02-10T01:16:00.720Z,0.00
2018-02-10T01:17:00.729Z,0.00
2018-02-10T01:18:00.739Z,0.00
2018-02-10T01:19:00.748Z,0.00
2018-02-10T01:20:00.755Z,0.00
2018-02-10T01:21:00.761Z,0.00
2018-02-10T01:22:00.781Z,0.00
2018-02-10T01:23:00.778Z,0.00
2018-02-10T01:24:00.793Z,0.00
2018-02-10T01:25:00.797Z,0.00
2018-02-10T01:26:00.804Z,0.00
2018-02-10T01:27:00.816Z,0.00
2018-02-10T01:28:00.825Z,0.00
2018-02-10T01:29:00.832Z,0.00
2018-02-10T01:30:00.840Z,0.00
2018-02-10T01:31:00.852Z,0.00
2018-02-10T01:32:00.861Z,0.00
2018-02-10T01:33:00.870Z,0.00
2018-02-10T01:34:00.876Z,0.00
2018-02-10T01:35:00.882Z,0.00
2018-02-10T01:36:00.897Z,0.00
2018-02-10T01:37:00.901Z,0.00
2018-02-10T01:38:00.912Z,0.00
2018-02-10T01:39:00.919Z,0.00
2018-02-10T01:40:00.927Z,0.00
2018-02-10T01:41:00.935Z,0.00
2018-02-10T01:42:00.949Z,0.00
2018-02-10T01:43:00.955Z,0.00
2018-02-10T01:44:00.963Z,0.00
2018-02-10T01:45:00.974Z,0.00
2018-02-10T01:46:00.985Z,0.00
2018-02-10T01:47:00.997Z,0.00
2018-02-10T01:48:01.001Z,0.00
2018-02-10T01:49:01.009Z,0.00
2018-02-10T01:50:01.014Z,0.00
2018-02-10T01:51:01.029Z,0.00
2018-02-10T01:52:01.034Z,0.00
2018-02-10T01:53:01.046Z,0.00
2018-02-10T01:54:01.053Z,0.00
2018-02-10T01:55:01.062Z,0.00
2018-02-10T01:56:01.075Z,0.00
2018-02-10T01:57:01.079Z,0.00
2018-02-10T01:58:01.171Z,0.00
2018-02-10T01:59:01.202Z,0.00
2018-02-10T02:00:01.114Z,0.00
2018-02-10T02:01:01.127Z,0.00
2018-02-10T02:02:01.131Z,0.00
2018-02-10T02:03:01.132Z,0.00
2018-02-10T02:04:01.145Z,0.00
2018-02-10T02:05:01.155Z,0.00
2018-02-10T02:06:01.190Z,0.00
2018-02-10T02:07:01.173Z,0.00
2018-02-10T02:08:01.325Z,0.00
2018-02-10T02:09:01.189Z,0.00
2018-02-10T02:10:01.198Z,0.00
2018-02-10T02:11:01.205Z,0.00
2018-02-10T02:12:01.223Z,0.00
2018-02-10T02:13:01.225Z,0.00
2018-02-10T02:14:01.231Z,0.00
2018-02-10T02:15:01.299Z,0.00
2018-02-10T02:16:01.626Z,0.00
2018-02-10T02:17:01.262Z,0.00
2018-02-10T02:18:01.283Z,0.00
2018-02-10T02:19:01.286Z,0.00
2018-02-10T02:20:01.287Z,0.00
2018-02-10T02:21:01.321Z,0.00
2018-02-10T02:22:01.308Z,0.00
2018-02-10T02:23:01.524Z,0.00
2018-02-10T02:24:01.482Z,0.00
2018-02-10T02:25:01.334Z,0.00
2018-02-10T02:26:01.346Z,0.00
2018-02-10T02:27:01.348Z,0.00
2018-02-10T02:28:01.360Z,0.00
2018-02-10T02:29:01.372Z,0.00
2018-02-10T02:30:01.374Z,0.00
2018-02-10T02:31:01.391Z,0.00
2018-02-10T02:32:01.394Z,0.00
2018-02-10T02:33:01.402Z,0.00
2018-02-10T02:34:01.414Z,0.00
2018-02-10T02:35:01.477Z,0.00
2018-02-10T02:36:01.429Z,0.00
2018-02-10T02:37:01.442Z,0.00
2018-02-10T02:38:01.453Z,0.00
2018-02-10T02:39:01.455Z,0.00
2018-02-10T02:40:01.468Z,0.00
2018-02-10T02:41:01.475Z,0.00
2018-02-10T02:42:01.481Z,0.00
2018-02-10T02:43:01.493Z,0.00
2018-02-10T02:44:01.500Z,0.00
2018-02-10T02:45:01.561Z,0.00
2018-02-10T02:46:01.520Z,0.00
2018-02-10T02:47:01.527Z,0.00
2018-02-10T02:48:01.541Z,0.00
2018-02-10T02:49:01.547Z,0.00
2018-02-10T02:50:01.557Z,0.00
2018-02-10T02:51:01.565Z,0.00
2018-02-10T02:52:01.575Z,0.00
2018-02-10T02:53:01.584Z,0.00
2018-02-10T02:54:01.595Z,0.00
2018-02-10T02:55:01.598Z,0.00
2018-02-10T02:56:01.611Z,0.00
2018-02-10T02:57:01.614Z,0.00
2018-02-10T02:58:01.626Z,0.00
2018-02-10T02:59:01.636Z,0.00
2018-02-10T03:00:01.644Z,0.00
2018-02-10T03:01:01.669Z,0.00
2018-02-10T03:02:01.663Z,0.00
2018-02-10T03:03:01.673Z,0.00
2018-02-10T03:04:01.683Z,0.00
2018-02-10T03:05:01.689Z,0.00
2018-02-10T03:06:01.862Z,0.00
2018-02-10T03:07:01.710Z,0.00
2018-02-10T03:08:01.713Z,0.00
2018-02-10T03:09:01.725Z,0.00
2018-02-10T03:10:01.734Z,0.00
2018-02-10T03:11:01.741Z,0.00
2018-02-10T03:12:01.754Z,0.00
2018-02-10T03:13:01.762Z,0.00
2018-02-10T03:14:01.767Z,0.00
2018-02-10T03:15:01.777Z,0.00
2018-02-10T03:16:01.788Z,0.00
2018-02-10T03:17:01.796Z,0.00
2018-02-10T03:18:01.807Z,0.00
2018-02-10T03:19:01.813Z,0.00
2018-02-10T03:20:01.825Z,0.00
2018-02-10T03:21:01.836Z,0.00
2018-02-10T03:22:01.838Z,0.00
2018-02-10T03:23:01.848Z,0.00
2018-02-10T03:24:01.857Z,0.00
2018-02-10T03:25:01.870Z,0.00
2018-02-10T03:26:01.877Z,0.00
2018-02-10T03:27:01.887Z,0.00
2018-02-10T03:28:01.892Z,0.00
2018-02-10T03:29:01.903Z,0.00
2018-02-10T03:30:01.910Z,0.00
2018-02-10T03:31:01.918Z,0.00
2018-02-10T03:32:01.932Z,0.00
2018-02-10T03:33:01.955Z,0.00
2018-02-10T03:34:01.945Z,0.00
2018-02-10T03:35:01.956Z,0.00
2018-02-10T03:36:01.967Z,0.00
2018-02-10T03:37:01.975Z,0.00
2018-02-10T03:38:01.981Z,0.00
2018-02-10T03:39:01.992Z,0.00
2018-02-10T03:40:02.001Z,0.00
2018-02-10T03:41:02.009Z,0.00
2018-02-10T03:42:02.016Z,0.00
2018-02-10T03:43:02.025Z,0.00
2018-02-10T03:44:02.039Z,0.00
2018-02-10T03:45:02.044Z,0.00
2018-02-10T03:46:02.053Z,0.00
2018-02-10T03:47:02.065Z,0.00
2018-02-10T03:48:02.067Z,0.00
2018-02-10T03:49:02.076Z,0.00
2018-02-10T03:50:02.085Z,0.00
2018-02-10T03:51:02.094Z,0.00
2018-02-10T03:52:02.111Z,0.00
2018-02-10T03:53:02.112Z,0.00
2018-02-10T03:54:02.125Z,0.00
2018-02-10T03:55:02.133Z,0.00
2018-02-10T03:56:02.139Z,0.00
2018-02-10T03:57:02.154Z,0.00
2018-02-10T03:58:02.158Z,0.00
2018-02-10T03:59:02.163Z,0.00
2018-02-10T04:00:02.176Z,0.00
2018-02-10T04:01:02.185Z,0.00
2018-02-10T04:02:02.188Z,0.00
2018-02-10T04:03:02.203Z,0.00
2018-02-10T04:04:02.209Z,0.00
2018-02-10T04:05:02.217Z,0.00
2018-02-10T04:06:02.229Z,0.00
2018-02-10T04:07:02.231Z,0.00
2018-02-10T04:08:02.242Z,0.00
2018-02-10T04:09:02.252Z,0.00
2018-02-10T04:10:02.263Z,0.00
2018-02-10T04:11:02.269Z,0.00
2018-02-10T04:12:02.280Z,0.00
2018-02-10T04:13:02.290Z,0.00
2018-02-10T04:14:02.298Z,0.00
2018-02-10T04:15:02.322Z,0.00
2018-02-10T04:16:02.314Z,0.00
2018-02-10T04:17:02.325Z,0.00
2018-02-10T04:18:02.334Z,0.00
2018-02-10T04:19:02.345Z,0.00
2018-02-10T04:20:02.349Z,0.00
2018-02-10T04:21:02.364Z,0.00
2018-02-10T04:22:02.369Z,0.00
2018-02-10T04:23:02.378Z,0.00
2018-02-10T04:24:02.388Z,0.00
2018-02-10T04:25:02.659Z,0.00
2018-02-10T04:26:02.407Z,0.00
2018-02-10T04:27:02.414Z,0.00
2018-02-10T04:28:02.435Z,0.00
2018-02-10T04:29:02.434Z,0.00
2018-02-10T04:30:02.441Z,0.00
2018-02-10T04:31:02.452Z,0.00
2018-02-10T04:32:02.461Z,0.00
2018-02-10T04:33:02.473Z,0.00
2018-02-10T04:34:02.481Z,0.00
2018-02-10T04:35:02.485Z,0.00
2018-02-10T04:36:02.497Z,0.00
2018-02-10T04:37:02.506Z,0.00
2018-02-10T04:38:02.518Z,0.00
2018-02-10T04:39:02.524Z,0.00
2018-02-10T04:40:02.536Z,0.00
2018-02-10T04:41:02.545Z,0.00
2018-02-10T04:42:02.556Z,0.00
2018-02-10T04:43:02.566Z,0.00
2018-02-10T04:44:02.575Z,0.00
2018-02-10T04:45:02.583Z,0.00
2018-02-10T04:46:02.590Z,0.00
2018-02-10T04:47:02.600Z,0.00
2018-02-10T04:48:02.613Z,0.00
2018-02-10T04:49:02.624Z,0.00
2018-02-10T04:50:02.632Z,0.00
2018-02-10T04:51:02.640Z,0.00
2018-02-10T04:52:02.652Z,0.00
2018-02-10T04:53:02.668Z,0.00
2018-02-10T04:54:02.668Z,0.00
2018-02-10T04:55:02.680Z,0.00
2018-02-10T04:56:02.699Z,0.00
2018-02-10T04:57:02.702Z,0.00
2018-02-10T04:58:02.709Z,0.00
2018-02-10T04:59:02.719Z,0.00
2018-02-10T05:00:02.726Z,0.00
2018-02-10T05:01:02.738Z,0.00
2018-02-10T05:02:02.748Z,0.00
2018-02-10T05:03:02.767Z,0.00
2018-02-10T05:04:02.767Z,0.00
2018-02-10T05:05:02.775Z,0.00
2018-02-10T05:06:02.787Z,0.00
2018-02-10T05:07:02.797Z,0.00
2018-02-10T05:08:02.819Z,0.00
2018-02-10T05:09:02.816Z,0.00
2018-02-10T05:10:02.825Z,0.00
2018-02-10T05:11:02.836Z,0.00
2018-02-10T05:12:02.847Z,0.00
2018-02-10T05:13:02.855Z,0.00
2018-02-10T05:14:02.868Z,0.00
2018-02-10T05:15:02.874Z,0.00
2018-02-10T05:16:02.884Z,0.00
2018-02-10T05:17:02.896Z,0.00
2018-02-10T05:18:02.905Z,0.00
2018-02-10T05:19:02.917Z,0.00
2018-02-10T05:20:02.927Z,0.00
2018-02-10T05:21:02.936Z,0.00
2018-02-10T05:22:02.944Z,0.00
2018-02-10T05:23:02.952Z,0.00
2018-02-10T05:24:02.962Z,0.00
2018-02-10T05:25:02.978Z,0.00
2018-02-10T05:26:02.984Z,0.00
2018-02-10T05:27:02.995Z,0.00
2018-02-10T05:28:03.007Z,0.00
2018-02-10T05:29:03.013Z,0.00
2018-02-10T05:30:03.024Z,0.00
2018-02-10T05:31:03.035Z,0.00
2018-02-10T05:32:03.045Z,0.00
2018-02-10T05:33:03.055Z,0.00
2018-02-10T05:34:03.065Z,0.00
2018-02-10T05:35:03.076Z,0.00
2018-02-10T05:36:03.084Z,0.00
2018-02-10T05:37:03.095Z,0.00
2018-02-10T05:38:03.106Z,0.00
2018-02-10T05:39:03.119Z,0.00
2018-02-10T05:40:03.126Z,0.00
2018-02-10T05:41:03.137Z,0.00
2018-02-10T05:42:03.352Z,0.00
2018-02-10T05:43:03.155Z,0.00
2018-02-10T05:44:03.163Z,0.00
2018-02-10T05:45:03.176Z,0.00
2018-02-10T05:46:03.185Z,0.00
2018-02-10T05:47:03.199Z,0.00
2018-02-10T05:48:03.208Z,0.00
2018-02-10T05:49:03.221Z,0.00
2018-02-10T05:50:03.228Z,0.00
2018-02-10T05:51:03.235Z,0.00
2018-02-10T05:52:03.248Z,0.00
2018-02-10T05:53:03.258Z,0.00
2018-02-10T05:54:03.268Z,0.00
2018-02-10T05:55:03.449Z,0.00
2018-02-10T05:56:03.326Z,0.00
2018-02-10T05:57:03.317Z,0.00
2018-02-10T05:58:03.307Z,0.00
2018-02-10T05:59:03.322Z,0.00
2018-02-10T06:00:03.336Z,0.00
2018-02-10T06:01:03.351Z,0.00
2018-02-10T06:02:03.352Z,0.00
2018-02-10T06:03:03.361Z,0.00
2018-02-10T06:04:03.373Z,0.00
2018-02-10T06:05:03.384Z,0.00
2018-02-10T06:06:03.395Z,0.00
2018-02-10T06:07:03.400Z,0.00
2018-02-10T06:08:03.417Z,0.00
2018-02-10T06:09:03.421Z,0.00
2018-02-10T06:10:03.434Z,0.00
2018-02-10T06:11:03.449Z,0.00
2018-02-10T06:12:03.451Z,0.00
2018-02-10T06:13:03.462Z,0.00
2018-02-10T06:14:03.473Z,0.00
2018-02-10T06:15:03.487Z,0.00
2018-02-10T06:16:03.497Z,0.00
2018-02-10T06:17:03.505Z,0.00
2018-02-10T06:18:03.519Z,0.00
2018-02-10T06:19:03.548Z,0.00
2018-02-10T06:20:03.539Z,0.00
2018-02-10T06:21:03.547Z,0.00
2018-02-10T06:22:03.563Z,0.00
2018-02-10T06:23:03.578Z,0.00
2018-02-10T06:24:03.580Z,0.00
2018-02-10T06:25:03.589Z,0.00
2018-02-10T06:26:03.602Z,0.00
2018-02-10T06:27:03.610Z,0.00
2018-02-10T06:28:03.625Z,0.00
2018-02-10T06:29:03.631Z,0.00
2018-02-10T06:30:03.643Z,0.00
2018-02-10T06:31:03.657Z,0.00
2018-02-10T06:32:03.664Z,0.00
2018-02-10T06:33:03.678Z,0.00
2018-02-10T06:34:03.686Z,0.00
2018-02-10T06:35:03.696Z,0.00
2018-02-10T06:36:03.712Z,0.00
2018-02-10T06:37:03.722Z,0.00
2018-02-10T06:38:03.727Z,0.00
2018-02-10T06:39:03.744Z,0.00
2018-02-10T06:40:03.752Z,0.00
2018-02-10T06:41:03.764Z,0.00
2018-02-10T06:42:03.773Z,0.00
2018-02-10T06:43:03.784Z,0.00
2018-02-10T06:44:03.799Z,0.00
2018-02-10T06:45:03.808Z,0.00
2018-02-10T06:46:03.833Z,0.00
2018-02-10T06:47:03.826Z,0.00
2018-02-10T06:48:03.836Z,0.00
2018-02-10T06:49:03.848Z,0.00
2018-02-10T06:50:03.857Z,0.00
2018-02-10T06:51:03.871Z,0.00
2018-02-10T06:52:03.883Z,0.00
2018-02-10T06:53:03.898Z,5.63
2018-02-10T06:54:03.901Z,5.63
2018-02-10T06:55:03.916Z,5.63
2018-02-10T06:56:03.932Z,5.63
2018-02-10T06:57:03.939Z,5.63
2018-02-10T06:58:03.956Z,5.63
2018-02-10T06:59:03.958Z,5.63
2018-02-10T07:00:03.969Z,5.63
2018-02-10T07:01:03.979Z,5.63
2018-02-10T07:02:03.991Z,5.63
2018-02-10T07:03:04.000Z,5.63
2018-02-10T07:04:04.014Z,5.63
2018-02-10T07:05:04.022Z,5.63
2018-02-10T07:06:04.040Z,5.63
2018-02-10T07:07:04.046Z,11.25
2018-02-10T07:08:04.058Z,11.25
2018-02-10T07:09:04.070Z,11.25
2018-02-10T07:10:04.079Z,11.25
2018-02-10T07:11:04.092Z,11.25
2018-02-10T07:12:04.101Z,11.25
2018-02-10T07:13:04.116Z,11.25
2018-02-10T07:14:04.122Z,11.25
2018-02-10T07:15:04.136Z,11.25
2018-02-10T07:16:04.155Z,11.25
2018-02-10T07:17:04.160Z,11.25
2018-02-10T07:18:04.170Z,11.25
2018-02-10T07:19:04.225Z,11.25
2018-02-10T07:20:04.191Z,11.25
2018-02-10T07:21:04.202Z,11.25
2018-02-10T07:22:04.213Z,16.88
2018-02-10T07:23:04.226Z,16.88
2018-02-10T07:24:04.235Z,16.88
2018-02-10T07:25:04.249Z,16.88
2018-02-10T07:26:04.258Z,16.88
2018-02-10T07:27:04.270Z,16.88
2018-02-10T07:28:04.281Z,16.88
2018-02-10T07:29:04.293Z,16.88
2018-02-10T07:30:04.301Z,16.88
2018-02-10T07:31:04.315Z,16.88
2018-02-10T07:32:04.331Z,16.88
2018-02-10T07:33:04.341Z,16.88
2018-02-10T07:34:04.349Z,22.50
2018-02-10T07:35:04.362Z,22.50
2018-02-10T07:36:04.368Z,22.50
2018-02-10T07:37:04.385Z,22.50
2018-02-10T07:38:04.396Z,22.50
2018-02-10T07:39:04.413Z,22.50
2018-02-10T07:40:04.417Z,22.50
2018-02-10T07:41:04.429Z,22.50
2018-02-10T07:42:04.440Z,28.13
2018-02-10T07:43:04.449Z,28.13
2018-02-10T07:44:04.463Z,28.13
2018-02-10T07:45:04.472Z,28.13
2018-02-10T07:46:04.484Z,28.13
2018-02-10T07:47:04.494Z,28.13
2018-02-10T07:48:04.509Z,28.13
2018-02-10T07:49:04.517Z,28.13
2018-02-10T07:50:04.528Z,28.13
2018-02-10T07:51:04.542Z,28.13
2018-02-10T07:52:04.590Z,33.75
2018-02-10T07:53:04.580Z,33.75
2018-02-10T07:54:04.574Z,33.75
2018-02-10T07:55:04.587Z,33.75
2018-02-10T07:56:04.601Z,33.75
2018-02-10T07:57:04.611Z,33.75
2018-02-10T07:58:04.622Z,33.75
2018-02-10T07:59:04.630Z,33.75
2018-02-10T08:00:04.646Z,28.13
2018-02-10T08:01:04.655Z,33.75
2018-02-10T08:02:04.667Z,33.75
2018-02-10T08:03:04.678Z,33.75
2018-02-10T08:04:04.690Z,33.75
2018-02-10T08:05:04.701Z,33.75
2018-02-10T08:06:04.714Z,33.75
2018-02-10T08:07:04.723Z,33.75
2018-02-10T08:08:04.735Z,33.75
2018-02-10T08:09:04.764Z,39.38
2018-02-10T08:10:04.771Z,33.75
2018-02-10T08:11:04.776Z,33.75
2018-02-10T08:12:04.783Z,33.75
2018-02-10T08:13:04.796Z,33.75
2018-02-10T08:14:04.805Z,33.75
2018-02-10T08:15:04.820Z,33.75
2018-02-10T08:16:04.830Z,33.75
2018-02-10T08:17:04.841Z,33.75
2018-02-10T08:18:04.854Z,39.38
2018-02-10T08:19:04.864Z,39.38
2018-02-10T08:20:04.873Z,39.38
2018-02-10T08:21:04.886Z,45.00
2018-02-10T08:22:04.900Z,45.00
2018-02-10T08:23:04.913Z,45.00
2018-02-10T08:24:04.924Z,45.00
2018-02-10T08:25:04.935Z,45.00
2018-02-10T08:26:04.950Z,45.00
2018-02-10T08:27:04.960Z,45.00
2018-02-10T08:28:04.997Z,50.63
2018-02-10T08:29:04.982Z,50.63
2018-02-10T08:30:04.991Z,56.25
2018-02-10T08:31:05.004Z,61.88
2018-02-10T08:32:05.017Z,67.50
2018-02-10T08:33:05.028Z,67.50
2018-02-10T08:34:05.040Z,67.50
2018-02-10T08:35:05.088Z,61.88
2018-02-10T08:36:05.062Z,61.88
2018-02-10T08:37:05.075Z,67.50
2018-02-10T08:38:05.087Z,67.50
2018-02-10T08:39:05.100Z,67.50
2018-02-10T08:40:05.111Z,67.50
2018-02-10T08:41:05.124Z,67.50
2018-02-10T08:42:05.140Z,67.50
2018-02-10T08:43:05.147Z,73.13
2018-02-10T08:44:05.160Z,73.13
2018-02-10T08:45:05.171Z,73.13
2018-02-10T08:46:05.186Z,73.13
2018-02-10T08:47:05.228Z,73.13
2018-02-10T08:48:05.206Z,73.13
2018-02-10T08:49:05.231Z,73.13
2018-02-10T08:50:05.235Z,73.13
2018-02-10T08:51:05.242Z,73.13
2018-02-10T08:52:05.258Z,78.75
2018-02-10T08:53:05.265Z,78.75
2018-02-10T08:54:05.280Z,84.38
2018-02-10T08:55:05.290Z,84.38
2018-02-10T08:56:05.304Z,84.38
2018-02-10T08:57:05.314Z,84.38
2018-02-10T08:58:05.327Z,84.38
2018-02-10T08:59:05.336Z,84.38
2018-02-10T09:00:05.350Z,84.38
2018-02-10T09:01:05.362Z,84.38
2018-02-10T09:02:05.382Z,90.00
2018-02-10T09:03:05.389Z,90.00
2018-02-10T09:04:05.405Z,90.00
2018-02-10T09:05:05.408Z,90.00
2018-02-10T09:06:05.422Z,95.63
2018-02-10T09:07:05.437Z,106.88
2018-02-10T09:08:05.447Z,112.50
2018-02-10T09:09:05.466Z,112.50
2018-02-10T09:10:05.478Z,106.88
2018-02-10T09:11:05.482Z,101.25
2018-02-10T09:12:05.497Z,101.25
2018-02-10T09:13:05.510Z,95.63
2018-02-10T09:14:05.523Z,95.63
2018-02-10T09:15:05.554Z,95.63
2018-02-10T09:16:05.550Z,95.63
2018-02-10T09:17:05.560Z,101.25
2018-02-10T09:18:05.574Z,101.25
2018-02-10T09:19:05.589Z,106.88
2018-02-10T09:20:05.597Z,106.88
2018-02-10T09:21:05.609Z,112.50
2018-02-10T09:22:05.621Z,118.13
2018-02-10T09:23:05.635Z,123.75
2018-02-10T09:24:05.648Z,129.38
2018-02-10T09:25:05.662Z,129.38
2018-02-10T09:26:05.671Z,135.00
2018-02-10T09:27:05.695Z,140.63
2018-02-10T09:28:05.698Z,140.63
2018-02-10T09:29:05.711Z,146.25
2018-02-10T09:30:05.727Z,146.25
2018-02-10T09:31:05.741Z,146.25
2018-02-10T09:32:05.763Z,151.88
2018-02-10T09:33:05.766Z,151.88
2018-02-10T09:34:05.783Z,151.88
2018-02-10T09:35:05.790Z,146.25
2018-02-10T09:36:05.803Z,146.25
2018-02-10T09:37:05.813Z,146.25
2018-02-10T09:38:05.826Z,140.63
2018-02-10T09:39:05.838Z,140.63
2018-02-10T09:40:05.861Z,135.00
2018-02-10T09:41:06.019Z,135.00
2018-02-10T09:42:05.878Z,140.63
2018-02-10T09:43:05.899Z,146.25
2018-02-10T09:44:05.901Z,151.88
2018-02-10T09:45:05.926Z,151.88
2018-02-10T09:46:05.934Z,146.25
2018-02-10T09:47:05.948Z,140.63
2018-02-10T09:48:05.956Z,146.25
2018-02-10T09:49:05.975Z,146.25
2018-02-10T09:50:05.985Z,140.63
2018-02-10T09:51:05.997Z,146.25
2018-02-10T09:52:06.020Z,146.25
2018-02-10T09:53:06.028Z,135.00
2018-02-10T09:54:06.037Z,129.38
2018-02-10T09:55:06.048Z,123.75
2018-02-10T09:56:06.061Z,123.75
2018-02-10T09:57:06.075Z,123.75
2018-02-10T09:58:06.085Z,123.75
2018-02-10T09:59:06.159Z,123.75
2018-02-10T10:00:06.113Z,123.75
2018-02-10T10:01:06.126Z,118.13
2018-02-10T10:02:06.139Z,118.13
2018-02-10T10:03:06.154Z,118.13
2018-02-10T10:04:06.171Z,112.50
2018-02-10T10:05:06.180Z,112.50
2018-02-10T10:06:06.190Z,112.50
2018-02-10T10:07:06.209Z,118.13
2018-02-10T10:08:06.218Z,118.13
2018-02-10T10:09:06.229Z,123.75
2018-02-10T10:10:06.245Z,123.75
2018-02-10T10:11:06.255Z,123.75
2018-02-10T10:12:06.270Z,123.75
2018-02-10T10:13:06.286Z,123.75
2018-02-10T10:14:06.342Z,123.75
2018-02-10T10:15:06.303Z,123.75
2018-02-10T10:16:06.381Z,118.13
2018-02-10T10:17:06.335Z,112.50
2018-02-10T10:18:06.362Z,112.50
2018-02-10T10:19:06.356Z,112.50
2018-02-10T10:20:06.369Z,118.13
2018-02-10T10:21:06.380Z,118.13
2018-02-10T10:22:06.399Z,118.13
2018-02-10T10:23:06.411Z,123.75
2018-02-10T10:24:06.423Z,123.75
2018-02-10T10:25:06.434Z,123.75
2018-02-10T10:26:06.445Z,118.13
2018-02-10T10:27:06.459Z,118.13
2018-02-10T10:28:06.493Z,112.50
2018-02-10T10:29:06.488Z,112.50
2018-02-10T10:30:06.498Z,112.50
2018-02-10T10:31:06.511Z,118.13
2018-02-10T10:32:06.522Z,118.13
2018-02-10T10:33:06.536Z,118.13
2018-02-10T10:34:06.550Z,118.13
2018-02-10T10:35:06.580Z,123.75
2018-02-10T10:36:06.573Z,135.00
2018-02-10T10:37:06.590Z,129.38
2018-02-10T10:38:06.602Z,140.63
2018-02-10T10:39:06.619Z,140.63
2018-02-10T10:40:06.631Z,140.63
2018-02-10T10:41:06.637Z,135.00
2018-02-10T10:42:06.651Z,129.38
2018-02-10T10:43:06.664Z,123.75
2018-02-10T10:44:06.676Z,123.75
2018-02-10T10:45:06.686Z,123.75
2018-02-10T10:46:06.701Z,129.38
2018-02-10T10:47:06.713Z,135.00
2018-02-10T10:48:06.725Z,135.00
2018-02-10T10:49:06.736Z,146.25
2018-02-10T10:50:06.752Z,151.88
2018-02-10T10:51:06.766Z,151.88
2018-02-10T10:52:06.778Z,163.13
2018-02-10T10:53:06.788Z,163.13
2018-02-10T10:54:06.802Z,163.13
2018-02-10T10:55:06.817Z,163.13
2018-02-10T10:56:06.831Z,168.75
2018-02-10T10:57:06.837Z,180.00
2018-02-10T10:58:06.901Z,180.00
2018-02-10T10:59:06.865Z,185.63
2018-02-10T11:00:06.876Z,180.00
2018-02-10T11:01:06.890Z,191.25
2018-02-10T11:02:06.901Z,191.25
2018-02-10T11:03:06.913Z,196.88
2018-02-10T11:04:06.926Z,191.25
2018-02-10T11:05:06.940Z,180.00
2018-02-10T11:06:06.953Z,180.00
2018-02-10T11:07:06.964Z,180.00
2018-02-10T11:08:06.980Z,180.00
2018-02-10T11:09:06.991Z,174.38
2018-02-10T11:10:07.002Z,168.75
2018-02-10T11:11:07.017Z,163.13
2018-02-10T11:12:07.027Z,174.38
2018-02-10T11:13:07.040Z,174.38
2018-02-10T11:14:07.054Z,174.38
2018-02-10T11:15:07.072Z,185.63
2018-02-10T11:16:07.085Z,191.25
2018-02-10T11:17:07.095Z,185.63
2018-02-10T11:18:07.105Z,180.00
2018-02-10T11:19:07.119Z,174.38
2018-02-10T11:20:07.134Z,157.50
2018-02-10T11:21:07.149Z,157.50
2018-02-10T11:22:07.161Z,157.50
2018-02-10T11:23:07.171Z,157.50
2018-02-10T11:24:07.186Z,151.88
2018-02-10T11:25:07.246Z,163.13
2018-02-10T11:26:07.212Z,163.13
2018-02-10T11:27:07.223Z,163.13
2018-02-10T11:28:07.274Z,157.50
2018-02-10T11:29:07.252Z,157.50
2018-02-10T11:30:07.404Z,163.13
2018-02-10T11:31:07.309Z,168.75
2018-02-10T11:32:07.295Z,174.38
2018-02-10T11:33:07.305Z,174.38
2018-02-10T11:34:07.329Z,185.63
2018-02-10T11:35:07.343Z,191.25
2018-02-10T11:36:07.347Z,191.25
2018-02-10T11:37:07.405Z,196.88
2018-02-10T11:38:07.500Z,202.50
2018-02-10T11:39:07.388Z,196.88
2018-02-10T11:40:07.401Z,191.25
2018-02-10T11:41:07.411Z,185.63
2018-02-10T11:42:07.430Z,174.38
2018-02-10T11:43:07.442Z,163.13
2018-02-10T11:44:07.456Z,146.25
2018-02-10T11:45:07.467Z,140.63
2018-02-10T11:46:07.491Z,135.00
2018-02-10T11:47:07.496Z,129.38
2018-02-10T11:48:07.508Z,129.38
2018-02-10T11:49:07.563Z,123.75
2018-02-10T11:50:07.531Z,118.13
2018-02-10T11:51:07.548Z,118.13
2018-02-10T11:52:07.573Z,129.38
2018-02-10T11:53:07.572Z,140.63
2018-02-10T11:54:07.588Z,157.50
2018-02-10T11:55:07.604Z,163.13
2018-02-10T11:56:07.631Z,185.63
2018-02-10T11:57:07.629Z,213.75
2018-02-10T11:58:07.645Z,213.75
2018-02-10T11:59:07.652Z,208.13
2018-02-10T12:00:07.668Z,196.88
2018-02-10T12:01:07.682Z,191.25
2018-02-10T12:02:07.695Z,191.25
2018-02-10T12:03:07.720Z,191.25
2018-02-10T12:04:07.719Z,191.25
2018-02-10T12:05:07.737Z,191.25
2018-02-10T12:06:07.749Z,191.25
2018-02-10T12:07:07.756Z,196.88
2018-02-10T12:08:07.774Z,191.25
2018-02-10T12:09:07.789Z,185.63
2018-02-10T12:10:07.810Z,174.38
2018-02-10T12:11:07.815Z,174.38
2018-02-10T12:12:07.827Z,180.00
2018-02-10T12:13:07.842Z,185.63
2018-02-10T12:14:07.854Z,185.63
2018-02-10T12:15:07.870Z,180.00
2018-02-10T12:16:07.886Z,202.50
2018-02-10T12:17:07.908Z,213.75
2018-02-10T12:18:07.913Z,208.13
2018-02-10T12:19:07.934Z,196.88
2018-02-10T12:20:07.950Z,191.25
2018-02-10T12:21:07.950Z,191.25
2018-02-10T12:22:07.963Z,180.00
2018-02-10T12:23:07.973Z,174.38
2018-02-10T12:24:07.993Z,180.00
2018-02-10T12:25:08.008Z,174.38
2018-02-10T12:26:08.017Z,168.75
2018-02-10T12:27:08.030Z,174.38
2018-02-10T12:28:08.044Z,174.38
2018-02-10T12:29:08.059Z,180.00
2018-02-10T12:30:08.072Z,174.38
2018-02-10T12:31:08.085Z,174.38
2018-02-10T12:32:08.099Z,174.38
2018-02-10T12:33:08.115Z,168.75
2018-02-10T12:34:08.127Z,168.75
2018-02-10T12:35:08.141Z,168.75
2018-02-10T12:36:08.153Z,168.75
2018-02-10T12:37:08.166Z,157.50
2018-02-10T12:38:08.195Z,157.50
2018-02-10T12:39:08.197Z,157.50
2018-02-10T12:40:08.217Z,157.50
2018-02-10T12:41:08.231Z,151.88
2018-02-10T12:42:08.236Z,146.25
2018-02-10T12:43:08.258Z,140.63
2018-02-10T12:44:08.267Z,135.00
2018-02-10T12:45:08.277Z,135.00
2018-02-10T12:46:08.291Z,135.00
2018-02-10T12:47:08.308Z,135.00
2018-02-10T12:48:08.320Z,140.63
2018-02-10T12:49:08.333Z,140.63
2018-02-10T12:50:08.348Z,146.25
2018-02-10T12:51:08.370Z,146.25
2018-02-10T12:52:08.378Z,140.63
2018-02-10T12:53:08.390Z,140.63
2018-02-10T12:54:08.416Z,140.63
2018-02-10T12:55:08.424Z,140.63
2018-02-10T12:56:08.438Z,135.00
2018-02-10T12:57:08.445Z,129.38
2018-02-10T12:58:08.458Z,118.13
2018-02-10T12:59:08.474Z,118.13